Time;durP1;ratioP1;P1;durP2;ratioP2;P2;SDS_P1;SDS_P2;PMS_P1;PMS_P2;Temp;Humidity;BMP_temperature;BMP_pressure;BME280_temperature;BME280_humidity;BME280_pressure;Samples;Min_cycle;Max_cycle;Signal;HPM_P1;HPM_P2
2021/05/11 00:01:48;;;;;;;5.32;2.70;;;;;;;16.56;69.64;99617.78;5015061;28;20062;-69
2021/05/11 00:04:17;;;;;;;4.22;2.80;;;;;;;16.53;69.87;99626.19;5015329;28;20406;-69
2021/05/11 00:06:44;;;;;;;4.70;3.30;;;;;;;16.42;70.99;99628.78;5015616;28;20054;-69
2021/05/11 00:09:11;;;;;;;3.28;2.97;;;;;;;16.41;70.85;99629.97;5015514;28;20504;-69
2021/05/11 00:11:38;;;;;;;4.38;3.67;;;;;;;16.39;71.19;99640.78;5015219;28;20054;-69
2021/05/11 00:14:06;;;;;;;4.55;4.10;;;;;;;16.37;72.35;99645.97;5015811;28;20060;-69
2021/05/11 00:16:34;;;;;;;3.95;3.40;;;;;;;16.32;72.02;99635.84;5015029;28;20065;-69
2021/05/11 00:19:03;;;;;;;3.72;3.13;;;;;;;16.26;72.32;99636.53;5015007;28;20050;-69
2021/05/11 00:21:30;;;;;;;5.30;3.35;;;;;;;16.24;72.71;99648.94;5015209;28;20054;-68
2021/05/11 00:23:57;;;;;;;4.85;4.10;;;;;;;16.24;73.38;99646.13;5014037;28;20050;-68
2021/05/11 00:26:24;;;;;;;4.93;4.43;;;;;;;16.26;73.29;99650.59;5015164;28;20380;-68
2021/05/11 00:28:50;;;;;;;5.50;4.78;;;;;;;16.28;73.79;99648.22;5015164;28;20050;-68
2021/05/11 00:31:18;;;;;;;5.35;4.85;;;;;;;16.28;73.48;99656.66;5014585;28;20069;-68
2021/05/11 00:33:45;;;;;;;5.00;4.50;;;;;;;16.27;73.89;99655.81;5014697;28;20096;-68
2021/05/11 00:36:12;;;;;;;5.22;4.72;;;;;;;16.30;73.82;99651.47;5014078;28;20053;-69
2021/05/11 00:38:39;;;;;;;5.53;4.82;;;;;;;16.27;73.95;99646.59;5015001;28;20053;-69
2021/05/11 00:41:08;;;;;;;7.05;4.80;;;;;;;16.18;74.46;99644.81;5014179;28;20061;-69
2021/05/11 00:43:42;;;;;;;6.50;5.32;;;;;;;16.23;74.42;99644.53;5014653;28;20506;-69
2021/05/11 00:46:08;;;;;;;5.88;4.95;;;;;;;16.25;74.16;99630.09;5015044;28;20046;-69
2021/05/11 00:48:38;;;;;;;6.38;5.35;;;;;;;16.27;74.64;99627.72;5014568;28;20399;-69
2021/05/11 00:51:06;;;;;;;5.78;5.15;;;;;;;16.28;74.53;99614.50;5014291;28;20057;-69
2021/05/11 00:53:35;;;;;;;6.05;5.45;;;;;;;16.28;74.81;99606.06;5014831;28;20052;-69
2021/05/11 00:56:02;;;;;;;7.85;6.13;;;;;;;16.29;75.07;99613.28;5014971;28;20076;-69
2021/05/11 00:58:29;;;;;;;6.70;6.00;;;;;;;16.29;75.60;99602.88;5014122;28;20057;-68
2021/05/11 01:00:56;;;;;;;7.78;6.20;;;;;;;16.32;75.22;99606.94;5014758;28;20054;-68
2021/05/11 01:03:23;;;;;;;6.75;6.05;;;;;;;16.33;74.71;99605.75;5014102;28;20053;-69
2021/05/11 01:05:51;;;;;;;7.45;5.22;;;;;;;16.25;74.75;99607.59;5014638;28;20053;-69
2021/05/11 01:08:17;;;;;;;6.60;5.60;;;;;;;16.21;74.70;99604.75;5014424;28;20056;-68
2021/05/11 01:10:44;;;;;;;6.85;5.47;;;;;;;16.21;74.89;99613.19;5014527;28;20050;-68
2021/05/11 01:13:11;;;;;;;6.13;5.30;;;;;;;16.14;74.93;99610.22;5019987;23;20053;-68
2021/05/11 01:15:41;;;;;;;5.18;4.68;;;;;;;16.05;75.35;99606.06;4994623;28;20515;-68
2021/05/11 01:18:10;;;;;;;;;;;;;;;16.03;75.03;99600.78;4994383;28;20399;-69
2021/05/11 01:20:39;;;;;;;5.72;4.88;;;;;;;16.00;74.91;99616.41;5005780;23;19922;-68
2021/05/11 01:26:04;;;;;;;6.32;5.30;;;;;;;15.91;75.35;99613.00;4958067;28;20515;-68
2021/05/11 01:28:38;;;;;;;5.13;4.65;;;;;;;15.89;75.56;99612.56;4974831;28;20062;-68
2021/05/11 01:47:59;;;;;;;6.88;4.78;;;;;;;15.11;81.42;99608.91;4992500;28;20061;-69
2021/05/11 01:50:28;;;;;;;5.93;4.57;;;;;;;15.14;80.33;99599.75;4990400;28;20050;-68
2021/05/11 01:53:04;;;;;;;;;;;;;;;15.15;81.89;99607.78;4994422;28;20054;-68
2021/05/11 01:55:44;;;;;;;5.53;4.50;;;;;;;15.14;78.90;99611.78;5000157;28;19933;-68
2021/05/11 02:22:46;;;;;;;3.78;2.83;;;;;;;14.57;79.24;99596.41;4994091;28;20057;-68
2021/05/11 02:25:14;;;;;;;6.05;3.72;;;;;;;14.67;78.16;99597.88;5009720;28;20054;-68
2021/05/11 02:27:42;;;;;;;5.90;3.03;;;;;;;14.70;78.51;99589.56;5012995;28;20399;-68
2021/05/11 02:30:10;;;;;;;5.80;3.10;;;;;;;14.75;78.10;99594.88;5013021;28;20052;-68
2021/05/11 02:32:38;;;;;;;4.75;3.08;;;;;;;14.80;77.76;99596.56;5013020;28;20061;-68
2021/05/11 02:35:05;;;;;;;5.53;3.17;;;;;;;14.82;77.92;99592.25;5013167;28;20049;-68
2021/05/11 02:37:33;;;;;;;7.43;3.58;;;;;;;14.89;78.07;99596.38;5013218;28;20085;-68
2021/05/11 02:40:00;;;;;;;7.47;3.80;;;;;;;14.95;77.65;99598.53;4997271;28;20050;-68
2021/05/11 02:42:27;;;;;;;10.13;4.07;;;;;;;14.99;77.76;99602.25;5004674;28;20046;-68
2021/05/11 02:44:56;;;;;;;6.85;4.28;;;;;;;15.02;77.76;99598.69;5013751;28;20054;-68
2021/05/11 02:47:23;;;;;;;6.82;3.60;;;;;;;15.08;77.53;99604.03;5012821;28;20050;-69
2021/05/11 02:49:51;;;;;;;3.78;3.00;;;;;;;15.13;77.91;99595.31;5013050;28;20065;-67
2021/05/11 02:52:18;;;;;;;6.53;3.88;;;;;;;15.17;77.76;99599.81;5013401;28;20060;-67
2021/05/11 02:54:46;;;;;;;4.25;3.10;;;;;;;15.20;77.39;99604.72;4999411;28;20049;-67
2021/05/11 02:57:12;;;;;;;7.97;4.38;;;;;;;15.21;76.40;99595.09;5002889;28;20061;-68
2021/05/11 02:59:39;;;;;;;5.18;3.30;;;;;;;15.23;76.84;99601.16;5016739;28;20060;-68
2021/05/11 03:02:09;;;;;;;6.93;3.28;;;;;;;15.26;76.29;99596.81;5021933;23;20066;-68
2021/05/11 03:04:36;;;;;;;6.82;3.40;;;;;;;15.26;75.45;99599.63;4997280;28;20058;-68
2021/05/11 03:07:03;;;;;;;5.20;3.25;;;;;;;15.23;75.51;99586.34;4997535;28;20054;-68
2021/05/11 03:09:30;;;;;;;7.45;3.80;;;;;;;15.23;75.94;99578.72;4997232;28;20403;-68
2021/05/11 03:11:57;;;;;;;6.60;3.28;;;;;;;15.22;76.57;99577.13;5005323;28;20065;-68
2021/05/11 03:14:24;;;;;;;4.82;3.28;;;;;;;15.24;76.39;99576.72;5016398;28;20061;-68
2021/05/11 03:16:53;;;;;;;5.40;3.15;;;;;;;15.26;76.94;99579.97;5016490;28;20054;-69
2021/05/11 03:19:21;;;;;;;6.57;3.53;;;;;;;15.31;76.10;99587.31;5016319;28;20054;-69
2021/05/11 03:21:48;;;;;;;5.47;3.30;;;;;;;15.28;74.88;99580.41;5016371;28;20065;-69
2021/05/11 03:24:15;;;;;;;6.95;4.15;;;;;;;15.26;75.38;99573.56;5014471;28;20061;-69
2021/05/11 03:26:42;;;;;;;5.95;3.40;;;;;;;15.26;75.45;99565.94;5004001;28;20568;-69
2021/05/11 03:29:09;;;;;;;5.82;3.17;;;;;;;15.23;75.64;99561.88;4996445;28;20058;-69
2021/05/11 03:31:36;;;;;;;6.28;3.38;;;;;;;15.19;75.49;99558.19;4996767;28;20054;-69
2021/05/11 03:34:03;;;;;;;5.95;3.65;;;;;;;15.19;76.06;99554.59;4996372;28;20054;-69
2021/05/11 03:36:31;;;;;;;5.07;4.00;;;;;;;15.18;76.01;99556.59;4996716;28;20065;-69
2021/05/11 03:39:01;;;;;;;5.57;4.05;;;;;;;15.17;75.75;99559.75;4996453;28;20046;-69
2021/05/11 03:41:33;;;;;;;6.72;3.92;;;;;;;15.17;75.07;99565.34;4996448;28;20510;-69
2021/05/11 03:44:04;;;;;;;5.63;3.42;;;;;;;15.09;74.92;99563.56;4996682;28;20054;-69
2021/05/11 03:46:33;;;;;;;5.25;3.53;;;;;;;15.01;75.00;99568.22;4996580;28;20054;-69
2021/05/11 03:49:00;;;;;;;6.30;3.95;;;;;;;14.97;75.41;99570.94;5006238;28;20085;-69
2021/05/11 03:51:27;;;;;;;8.15;4.03;;;;;;;14.92;74.93;99564.81;4996116;28;20053;-69
2021/05/11 03:53:54;;;;;;;5.25;3.65;;;;;;;14.85;75.38;99571.06;4996503;28;20492;-69
2021/05/11 03:56:21;;;;;;;6.50;3.72;;;;;;;14.82;75.14;99566.19;4995927;28;20065;-68
2021/05/11 03:58:48;;;;;;;6.45;4.18;;;;;;;14.81;75.65;99570.97;4997159;28;20046;-68
2021/05/11 04:01:15;;;;;;;7.38;4.60;;;;;;;14.79;75.60;99573.34;5003952;28;20403;-68
2021/05/11 04:03:42;;;;;;;6.45;3.58;;;;;;;14.81;75.66;99570.19;4997993;28;20061;-68
2021/05/11 04:06:09;;;;;;;5.93;3.83;;;;;;;14.80;75.39;99557.31;4995805;28;20050;-68
2021/05/11 04:08:43;;;;;;;6.38;3.95;;;;;;;14.84;75.31;99549.81;4995693;28;20050;-68
2021/05/11 04:11:27;;;;;;;5.65;3.60;;;;;;;14.86;75.44;99546.63;4995362;28;20065;-68
2021/05/11 04:14:17;;;;;;;6.22;3.67;;;;;;;14.82;75.26;99543.75;4996052;28;20046;-68
2021/05/11 04:16:43;;;;;;;;;;;;;;;14.74;74.87;99530.75;4996957;28;20054;-68
2021/05/11 04:19:10;;;;;;;6.13;3.47;;;;;;;14.71;75.04;99535.09;4995735;28;19921;-68
2021/05/11 04:21:37;;;;;;;5.47;2.97;;;;;;;14.67;75.14;99525.00;4995838;28;20061;-67
2021/05/11 04:24:05;;;;;;;6.55;3.25;;;;;;;14.65;74.90;99533.75;4996652;28;20058;-67
2021/05/11 04:26:33;;;;;;;4.93;3.03;;;;;;;14.67;74.70;99525.78;4995475;28;20061;-67
2021/05/11 04:29:01;;;;;;;4.55;3.10;;;;;;;14.68;74.96;99526.59;4994843;28;20051;-67
2021/05/11 04:31:29;;;;;;;4.93;3.00;;;;;;;14.70;75.06;99530.69;4995311;28;20404;-67
2021/05/11 04:33:59;;;;;;;6.00;3.40;;;;;;;14.76;74.57;99536.81;4994948;28;20054;-67
2021/05/11 04:36:26;;;;;;;;;;;;;;;14.80;74.38;99541.34;4995869;28;20054;-67
2021/05/11 04:38:52;;;;;;;5.70;2.65;;;;;;;14.91;74.64;99547.19;4998515;28;19922;-67
2021/05/11 04:41:19;;;;;;;7.70;3.08;;;;;;;15.05;74.85;99551.47;4998682;28;20058;-67
2021/05/11 04:43:48;;;;;;;4.88;3.03;;;;;;;15.22;74.32;99545.41;5014544;28;20418;-67
2021/05/11 04:46:24;;;;;;;4.50;2.92;;;;;;;15.31;73.91;99554.44;5014640;28;20065;-67
2021/05/11 04:48:52;;;;;;;5.43;3.30;;;;;;;15.48;73.36;99560.81;5007563;28;20061;-67
2021/05/11 04:51:20;;;;;;;7.47;4.25;;;;;;;15.57;73.25;99550.16;4995178;28;20061;-67
2021/05/11 04:53:48;;;;;;;7.40;3.95;;;;;;;15.56;72.99;99568.16;4994787;28;20058;-66
2021/05/11 04:56:15;;;;;;;5.88;3.47;;;;;;;15.57;72.64;99558.56;4999383;28;20056;-66
2021/05/11 04:58:42;;;;;;;4.65;3.67;;;;;;;15.64;73.47;99567.13;5014519;28;20072;-66
2021/05/11 05:01:09;;;;;;;5.20;3.42;;;;;;;15.69;73.11;99561.22;5014263;28;20054;-67
2021/05/11 05:03:39;;;;;;;5.80;3.53;;;;;;;15.69;73.44;99566.03;5014553;28;20062;-66
2021/05/11 05:06:07;;;;;;;4.05;3.65;;;;;;;15.73;73.19;99547.28;5005549;28;20051;-66
2021/05/11 05:08:34;;;;;;;3.30;2.80;;;;;;;15.85;72.65;99544.28;5009138;28;20054;-66
2021/05/11 05:11:02;;;;;;;4.85;3.22;;;;;;;15.87;72.31;99541.09;4994237;28;20050;-66
2021/05/11 05:13:29;;;;;;;4.18;3.30;;;;;;;15.97;72.20;99544.09;4994003;28;20058;-66
2021/05/11 05:15:57;;;;;;;5.30;3.05;;;;;;;16.03;71.88;99545.41;4994832;28;20058;-66
2021/05/11 05:18:29;;;;;;;4.35;3.25;;;;;;;15.99;72.14;99544.53;4993792;28;20073;-66
2021/05/11 05:20:56;;;;;;;5.22;3.20;;;;;;;15.97;72.41;99537.69;4993710;28;20050;-66
2021/05/11 05:23:29;;;;;;;5.68;3.30;;;;;;;15.95;72.53;99540.06;4994552;28;20053;-66
2021/05/11 05:26:00;;;;;;;6.70;3.35;;;;;;;15.94;73.12;99553.28;4994078;28;20054;-66
2021/05/11 05:28:27;;;;;;;6.38;3.50;;;;;;;15.91;72.83;99554.03;4994508;28;20054;-66
2021/05/11 05:30:54;;;;;;;4.80;3.58;;;;;;;15.92;72.48;99544.44;4994242;28;20318;-66
2021/05/11 05:33:31;;;;;;;4.57;3.60;;;;;;;15.94;72.65;99542.06;4996787;28;20048;-66
2021/05/11 05:35:58;;;;;;;5.40;3.70;;;;;;;15.93;72.74;99542.44;4994522;28;20400;-66
2021/05/11 05:38:26;;;;;;;6.78;3.20;;;;;;;15.99;72.56;99532.50;4994335;28;20055;-67
2021/05/11 05:40:57;;;;;;;4.10;3.08;;;;;;;16.12;72.55;99528.31;5008544;28;20049;-67
2021/05/11 05:43:24;;;;;;;4.57;3.38;;;;;;;16.34;71.90;99514.63;5006446;28;20050;-67
2021/05/11 05:45:53;;;;;;;4.70;3.42;;;;;;;16.64;71.10;99504.25;5002459;28;20050;-67
2021/05/11 05:48:20;;;;;;;4.03;2.95;;;;;;;16.96;69.84;99505.91;4995910;28;20066;-67
2021/05/11 05:50:53;;;;;;;5.32;3.65;;;;;;;17.30;69.37;99503.13;4991304;28;20050;-67
2021/05/11 05:53:23;;;;;;;3.88;3.22;;;;;;;17.61;68.33;99501.88;4994524;28;20058;-67
2021/05/11 05:55:50;;;;;;;5.70;3.20;;;;;;;17.93;67.31;99488.16;4974645;28;20131;-66
2021/05/11 05:58:17;;;;;;;4.40;2.97;;;;;;;18.19;66.46;99487.16;4989663;28;20125;-66
2021/05/11 06:00:45;;;;;;;4.25;3.03;;;;;;;18.52;65.16;99493.03;4995047;28;20053;-66
2021/05/11 06:03:35;;;;;;;5.32;3.03;;;;;;;18.85;65.26;99501.31;4993571;28;20062;-67
2021/05/11 06:06:07;;;;;;;6.70;3.17;;;;;;;19.14;63.45;99489.38;4995836;28;20062;-67
2021/05/11 06:08:36;;;;;;;5.55;3.08;;;;;;;19.24;61.83;99495.06;4994836;28;20061;-67
2021/05/11 06:11:11;;;;;;;4.13;3.20;;;;;;;19.21;62.98;99483.75;5003352;28;20042;-67
2021/05/11 06:13:41;;;;;;;4.28;2.90;;;;;;;19.21;63.10;99481.75;4999899;28;20046;-66
2021/05/11 06:18:53;;;;;;;3.90;3.40;;;;;;;19.33;62.43;99497.53;5010523;28;20061;-66
2021/05/11 06:21:21;;;;;;;4.57;2.75;;;;;;;19.40;61.35;99508.03;4993293;28;20066;-66
2021/05/11 06:23:48;;;;;;;3.13;2.83;;;;;;;19.50;61.77;99521.38;4994765;28;20077;-67
2021/05/11 06:26:14;;;;;;;4.18;3.35;;;;;;;19.54;61.59;99524.22;5012224;28;20054;-67
2021/05/11 06:28:44;;;;;;;4.65;3.10;;;;;;;19.60;60.59;99531.91;5013142;28;20065;-67
2021/05/11 06:31:11;;;;;;;4.97;3.25;;;;;;;19.75;60.23;99538.44;5012835;28;20061;-67
2021/05/11 06:33:38;;;;;;;4.65;3.20;;;;;;;19.71;59.52;99539.63;4996919;28;20686;-67
2021/05/11 06:36:06;;;;;;;5.13;3.30;;;;;;;19.61;59.80;99556.13;5000879;28;20479;-67
2021/05/11 06:38:34;;;;;;;5.30;3.50;;;;;;;19.33;60.04;99561.66;4998273;28;20058;-67
2021/05/11 06:41:01;;;;;;;6.18;3.67;;;;;;;19.14;60.74;99557.13;5000888;28;20042;-67
2021/05/11 06:43:31;;;;;;;5.05;3.70;;;;;;;18.98;61.70;99571.56;5008030;28;20049;-67
2021/05/11 06:48:52;;;;;;;6.03;4.18;;;;;;;18.71;62.11;99571.75;4963333;28;20061;-67
2021/05/11 06:54:13;;;;;;;5.13;4.03;;;;;;;18.44;63.62;99555.03;4950823;28;20046;-67
2021/05/11 06:56:44;;;;;;;6.57;3.88;;;;;;;18.51;62.91;99551.44;4995516;28;20492;-67
2021/05/11 06:59:12;;;;;;;5.38;4.18;;;;;;;18.53;62.92;99543.41;4994625;28;20689;-68
2021/05/11 07:01:39;;;;;;;4.55;4.05;;;;;;;18.63;63.35;99545.50;4993666;28;20058;-67
2021/05/11 07:04:06;;;;;;;5.40;4.90;;;;;;;18.72;63.21;99524.59;4993249;28;20176;-68
2021/05/11 07:06:35;;;;;;;6.97;5.22;;;;;;;18.84;62.87;99527.13;4999758;28;20050;-69
2021/05/11 07:09:07;;;;;;;7.97;5.63;;;;;;;18.97;63.61;99525.59;5004627;28;20078;-68
2021/05/11 07:14:16;;;;;;;7.03;4.82;;;;;;;19.20;63.26;99533.78;4990572;28;20057;-69
2021/05/11 07:16:43;;;;;;;5.95;5.20;;;;;;;19.31;61.99;99536.63;4994034;28;20066;-69
2021/05/11 07:19:09;;;;;;;6.30;5.30;;;;;;;19.38;61.47;99539.50;4993767;28;20069;-69
2021/05/11 07:21:36;;;;;;;7.03;5.45;;;;;;;19.37;60.71;99537.88;4990519;28;20046;-69
2021/05/11 07:24:05;;;;;;;6.38;4.78;;;;;;;19.38;60.41;99542.34;4998977;28;20050;-69
2021/05/11 07:26:32;;;;;;;6.40;5.55;;;;;;;19.23;61.75;99546.28;4989835;28;20053;-69
2021/05/11 07:29:06;;;;;;;6.88;5.03;;;;;;;19.14;61.43;99543.81;4991676;28;20062;-69
2021/05/11 07:31:33;;;;;;;6.50;5.75;;;;;;;19.09;61.54;99547.03;4993219;28;20054;-68
2021/05/11 07:34:02;;;;;;;6.93;4.75;;;;;;;18.99;61.45;99545.75;5004865;28;20062;-68
2021/05/11 07:36:29;;;;;;;6.45;5.30;;;;;;;18.99;61.97;99542.13;4991148;28;20066;-68
2021/05/11 07:38:59;;;;;;;6.10;5.10;;;;;;;18.96;62.77;99540.09;4989596;28;20055;-69
2021/05/11 07:41:26;;;;;;;5.97;5.32;;;;;;;18.96;61.24;99534.44;4988515;28;20046;-69
2021/05/11 07:43:55;;;;;;;7.15;5.97;;;;;;;18.93;61.65;99530.41;4991993;28;20054;-68
2021/05/11 07:52:21;;;;;;;7.40;5.22;;;;;;;19.30;61.27;99481.38;4994263;28;20065;-69
2021/05/11 08:03:35;;;;;;;6.47;5.88;;;;;;;19.75;60.81;99481.91;5008173;28;20077;-68
2021/05/11 08:14:37;;;;;;;8.43;5.70;;;;;;;21.23;56.94;99479.72;5014925;28;20415;-68
2021/05/11 08:17:05;;;;;;;6.88;5.13;;;;;;;21.43;55.15;99483.72;4994700;28;20080;-68
2021/05/11 08:27:57;;;;;;;5.55;4.70;;;;;;;21.68;53.21;99471.44;4995151;28;20073;-68
2021/05/11 08:30:24;;;;;;;7.97;5.10;;;;;;;21.91;53.26;99475.72;4992413;28;20384;-68
2021/05/11 08:32:51;;;;;;;5.88;5.18;;;;;;;22.16;52.08;99467.81;4994098;28;20071;-68
2021/05/11 08:35:19;;;;;;;5.25;4.13;;;;;;;22.52;50.53;99478.88;4991293;28;20058;-68
2021/05/11 08:37:46;;;;;;;4.97;4.13;;;;;;;22.83;49.64;99471.25;4996172;28;20061;-66
2021/05/11 08:40:14;;;;;;;5.65;4.00;;;;;;;23.20;48.96;99471.66;4997432;28;20057;-68
2021/05/11 08:42:41;;;;;;;4.80;4.30;;;;;;;23.48;48.48;99461.97;4994012;28;20054;-66
2021/05/11 08:45:10;;;;;;;5.15;3.97;;;;;;;23.65;48.16;99477.16;4994135;28;20046;-67
2021/05/11 08:47:49;;;;;;;4.35;3.47;;;;;;;23.82;46.71;99483.84;4993127;28;20061;-67
2021/05/11 08:50:18;;;;;;;4.13;3.43;;;;;;;24.11;46.33;99481.34;4992532;28;20187;-67
2021/05/11 08:53:01;;;;;;;3.33;2.47;;;;;;;24.04;45.02;99485.13;4992952;28;20050;-67
2021/05/11 09:07:10;;;;;;;3.92;1.83;;;;;;;23.41;42.95;99479.91;4954931;28;20062;-67
2021/05/11 09:09:56;;;;;;;2.60;2.00;;;;;;;23.44;42.40;99498.16;4951856;29;20054;-67
2021/05/11 09:23:55;;;;;;;3.17;1.98;;;;;;;23.27;44.94;99460.22;4907145;28;20062;-67
2021/05/11 09:26:42;;;;;;;2.70;1.80;;;;;;;23.59;43.64;99453.28;4936674;29;20055;-67
2021/05/11 09:29:26;;;;;;;1.80;1.30;;;;;;;23.82;42.15;99441.19;4941570;28;20051;-67
2021/05/11 09:32:01;;;;;;;2.83;1.52;;;;;;;24.14;42.40;99442.69;4952008;28;20062;-67
2021/05/11 09:34:35;;;;;;;2.33;1.30;;;;;;;24.96;39.74;99440.38;4952579;28;20047;-67
2021/05/11 09:50:52;;;;;;;3.17;1.65;;;;;;;24.07;41.92;99443.63;4945543;28;20054;-67
2021/05/11 09:54:37;;;;;;;2.72;1.67;;;;;;;23.05;44.36;99463.31;4938863;29;20055;-67
2021/05/11 10:40:34;;;;;;;2.83;1.70;;;;;;;20.31;51.51;99458.94;4991826;28;20061;-66
2021/05/11 10:48:42;;;;;;;4.57;3.00;;;;;;;19.75;54.15;99496.06;4990137;28;20472;-66
2021/05/11 10:51:24;;;;;;;5.22;2.72;;;;;;;19.63;54.93;99487.91;4991084;28;20408;-66
2021/05/11 10:54:07;;;;;;;4.90;3.22;;;;;;;19.38;56.03;99493.50;4984835;28;20069;-67
2021/05/11 10:57:06;;;;;;;5.38;3.40;;;;;;;19.34;56.67;99489.84;4990166;28;20049;-68
2021/05/11 10:59:53;;;;;;;6.32;4.57;;;;;;;19.29;56.22;99485.41;4991158;28;20054;-67
2021/05/11 11:05:39;;;;;;;8.32;7.38;;;;;;;19.23;57.09;99453.94;4996228;28;20050;-66
2021/05/11 11:08:26;;;;;;;10.20;7.70;;;;;;;19.29;57.32;99443.06;4995207;28;20104;-66
2021/05/11 11:11:02;;;;;;;6.45;5.80;;;;;;;19.32;58.10;99435.78;4999599;28;20058;-67
2021/05/11 11:13:33;;;;;;;6.72;5.95;;;;;;;19.41;57.92;99430.59;4993944;28;20074;-67
2021/05/11 11:16:00;;;;;;;9.05;5.72;;;;;;;19.42;57.72;99420.91;4990132;28;20050;-67
2021/05/11 11:18:27;;;;;;;6.45;5.85;;;;;;;19.43;57.84;99406.38;4991337;28;20054;-66
2021/05/11 11:21:17;;;;;;;7.70;5.80;;;;;;;19.50;57.88;99405.56;4998922;28;20054;-67
2021/05/11 11:23:44;;;;;;;6.72;5.38;;;;;;;19.52;57.30;99422.13;4997321;28;20053;-68
2021/05/11 11:26:13;;;;;;;6.53;5.93;;;;;;;19.65;56.76;99443.97;4996467;28;20065;-67
2021/05/11 11:28:41;;;;;;;6.75;6.15;;;;;;;19.78;56.74;99444.41;4992257;28;20054;-67
2021/05/11 11:31:27;;;;;;;7.03;6.43;;;;;;;19.69;57.96;99449.59;4995091;28;20065;-66
2021/05/11 11:34:13;;;;;;;7.82;7.03;;;;;;;19.60;58.23;99466.13;4987330;28;20062;-67
2021/05/11 11:36:46;;;;;;;8.73;7.88;;;;;;;19.60;58.59;99463.31;4979920;28;20050;-67
2021/05/11 11:39:18;;;;;;;8.45;7.63;;;;;;;19.49;59.04;99474.59;4997873;28;20049;-67
2021/05/11 11:41:46;;;;;;;8.30;7.43;;;;;;;19.54;59.47;99473.38;4994707;28;20051;-67
2021/05/11 11:44:16;;;;;;;7.28;6.68;;;;;;;19.55;58.61;99475.81;5001766;28;20065;-67
2021/05/11 11:46:43;;;;;;;8.20;7.40;;;;;;;19.33;59.43;99491.06;4997321;28;20050;-67
2021/05/11 11:49:18;;;;;;;7.38;6.68;;;;;;;19.28;60.68;99495.09;4994255;28;20059;-66
2021/05/11 11:51:57;;;;;;;8.63;7.63;;;;;;;19.11;61.60;99496.66;4995225;28;20046;-66
2021/05/11 11:54:31;;;;;;;6.75;6.10;;;;;;;18.90;60.78;99500.16;5001606;28;20399;-66
2021/05/11 11:59:55;;;;;;;6.68;5.95;;;;;;;18.77;62.27;99481.91;4992290;28;20065;-67
2021/05/11 12:02:22;;;;;;;6.60;5.47;;;;;;;18.78;62.94;99469.44;4992981;28;20764;-67
2021/05/11 12:04:49;;;;;;;5.90;5.30;;;;;;;18.79;61.60;99476.72;4994144;28;20057;-67
2021/05/11 12:07:18;;;;;;;7.40;5.85;;;;;;;18.62;62.80;99490.28;4994613;28;20411;-67
2021/05/11 12:09:48;;;;;;;6.70;5.97;;;;;;;18.45;63.68;99499.44;4997402;28;20058;-67
2021/05/11 12:12:17;;;;;;;;;;;;;;;18.16;63.65;99509.66;4986691;28;20051;-66
2021/05/11 12:14:44;;;;;;;5.30;4.55;;;;;;;17.99;63.79;99502.69;4986709;28;20287;-66
2021/05/11 12:17:11;;;;;;;5.70;5.07;;;;;;;17.87;65.39;99500.16;4993099;28;20058;-66
2021/05/11 12:19:43;;;;;;;5.30;4.80;;;;;;;17.80;66.22;99496.03;4994616;28;20058;-66
2021/05/11 12:22:10;;;;;;;6.03;4.95;;;;;;;17.84;66.00;99493.28;4992965;28;20419;-66
2021/05/11 12:24:40;;;;;;;5.03;3.90;;;;;;;17.85;65.52;99484.47;4998596;28;20074;-66
2021/05/11 12:27:13;;;;;;;3.90;3.50;;;;;;;17.95;64.87;99482.13;4993536;28;20058;-67
2021/05/11 12:29:58;;;;;;;4.68;4.05;;;;;;;18.11;65.02;99482.66;4991618;28;20054;-66
2021/05/11 12:32:25;;;;;;;5.38;4.35;;;;;;;18.06;64.48;99483.03;4991930;28;20050;-66
2021/05/11 12:35:09;;;;;;;4.28;3.78;;;;;;;18.18;63.89;99488.34;4992692;28;20058;-67
2021/05/11 12:37:50;;;;;;;4.05;3.65;;;;;;;18.29;64.26;99485.63;4992264;28;20500;-67
2021/05/11 12:40:25;;;;;;;3.70;3.28;;;;;;;18.38;63.55;99472.00;4994129;28;20506;-67
2021/05/11 12:42:53;;;;;;;4.45;3.60;;;;;;;18.44;63.79;99481.72;4992422;28;20498;-68
2021/05/11 12:45:20;;;;;;;3.65;3.22;;;;;;;18.41;62.89;99471.19;4993514;28;20058;-67
2021/05/11 12:47:52;;;;;;;3.85;3.40;;;;;;;18.53;62.52;99478.53;4991489;28;20050;-67
2021/05/11 12:50:22;;;;;;;3.88;3.10;;;;;;;18.31;62.63;99483.25;4993464;28;20050;-67
2021/05/11 12:52:51;;;;;;;4.07;3.65;;;;;;;18.40;63.58;99482.91;4996083;28;20046;-67
2021/05/11 12:55:55;;;;;;;3.67;3.35;;;;;;;18.40;63.70;99492.16;4993923;28;20051;-67
2021/05/11 12:58:31;;;;;;;4.80;3.60;;;;;;;18.34;63.31;99493.72;5002416;28;20523;-67
2021/05/11 13:01:05;;;;;;;3.65;3.30;;;;;;;18.31;63.03;99488.03;5000058;28;20058;-67
2021/05/11 13:03:43;;;;;;;3.70;3.03;;;;;;;18.38;63.49;99476.84;4994156;28;20054;-67
2021/05/11 13:17:37;;;;;;;5.22;3.47;;;;;;;18.45;64.11;99471.22;4998480;28;20077;-67
2021/05/11 13:20:17;;;;;;;3.67;3.38;;;;;;;18.55;63.84;99470.50;4992072;28;20061;-66
2021/05/11 13:22:55;;;;;;;4.82;3.65;;;;;;;18.67;63.24;99467.34;4981173;28;20050;-66
2021/05/11 13:25:30;;;;;;;3.60;3.25;;;;;;;18.68;63.07;99468.16;4996863;28;20065;-67
2021/05/11 13:28:07;;;;;;;3.97;3.03;;;;;;;18.71;62.91;99466.56;5005157;28;20724;-67
2021/05/11 13:30:44;;;;;;;3.85;2.47;;;;;;;18.73;62.62;99461.31;5012343;28;20054;-67
2021/05/11 13:33:25;;;;;;;3.70;2.95;;;;;;;18.61;62.77;99457.66;4990466;28;20066;-67
2021/05/11 13:35:52;;;;;;;4.20;3.30;;;;;;;18.44;63.06;99467.63;4996445;28;20537;-68
2021/05/11 13:38:20;;;;;;;3.95;3.38;;;;;;;18.53;63.07;99464.44;4991312;28;20511;-67
2021/05/11 13:41:05;;;;;;;5.90;3.70;;;;;;;18.59;64.17;99465.69;5010214;28;20188;-67
2021/05/11 13:43:33;;;;;;;5.25;3.28;;;;;;;18.69;63.25;99475.44;4994564;28;20053;-67
2021/05/11 13:46:00;;;;;;;4.53;3.40;;;;;;;18.75;63.78;99467.38;4991294;28;20061;-67
2021/05/11 13:48:33;;;;;;;3.70;3.33;;;;;;;18.93;63.40;99465.50;4989969;28;20050;-67
2021/05/11 13:51:05;;;;;;;4.07;3.08;;;;;;;18.93;62.47;99461.88;4992544;28;20061;-67
2021/05/11 13:53:34;;;;;;;3.00;2.70;;;;;;;19.08;62.38;99472.00;4992851;28;20720;-67
2021/05/11 13:56:14;;;;;;;3.75;2.80;;;;;;;19.06;62.27;99466.75;4990022;28;20076;-68
2021/05/11 14:04:12;;;;;;;3.33;2.13;;;;;;;19.12;61.12;99475.66;4979653;28;20518;-68
2021/05/11 14:06:39;;;;;;;2.53;2.13;;;;;;;19.24;60.67;99471.69;5000623;28;20065;-67
2021/05/11 14:09:07;;;;;;;2.67;1.85;;;;;;;19.36;60.23;99462.84;4987480;28;20053;-68
2021/05/11 14:11:35;;;;;;;2.88;2.28;;;;;;;19.47;59.64;99471.34;4989899;28;20050;-68
2021/05/11 14:14:04;;;;;;;2.72;2.08;;;;;;;19.61;58.64;99457.25;4991894;28;20396;-67
2021/05/11 14:16:31;;;;;;;4.38;2.72;;;;;;;19.81;59.46;99446.41;4991118;28;20543;-68
2021/05/11 14:18:58;;;;;;;4.85;2.60;;;;;;;20.01;59.21;99446.84;4991192;28;20065;-67
2021/05/11 14:21:28;;;;;;;3.65;2.38;;;;;;;20.13;58.42;99458.94;4992848;28;20054;-68
2021/05/11 14:23:56;;;;;;;2.53;2.15;;;;;;;20.19;56.99;99451.66;4993359;28;20061;-68
2021/05/11 14:26:24;;;;;;;3.65;2.40;;;;;;;20.18;56.38;99455.69;4974326;28;20074;-67
2021/05/11 14:28:50;;;;;;;2.72;2.28;;;;;;;20.12;56.21;99468.66;4989899;28;20054;-67
2021/05/11 14:31:19;;;;;;;4.03;2.22;;;;;;;20.02;55.91;99467.44;4974360;28;20058;-67
2021/05/11 14:33:46;;;;;;;2.85;2.47;;;;;;;19.93;56.67;99462.19;4992319;28;20075;-67
2021/05/11 14:36:13;;;;;;;3.60;2.75;;;;;;;19.83;58.10;99454.50;4991158;28;20087;-67
2021/05/11 14:38:40;;;;;;;3.17;2.60;;;;;;;19.80;57.68;99456.13;5004555;28;20060;-68
2021/05/11 14:41:08;;;;;;;4.57;3.47;;;;;;;19.81;58.38;99454.88;4990898;28;20057;-67
2021/05/11 14:43:36;;;;;;;4.03;3.05;;;;;;;19.67;59.36;99443.53;4990500;28;20513;-67
2021/05/11 14:46:04;;;;;;;3.70;2.83;;;;;;;19.64;60.26;99450.00;5000548;28;20061;-68
2021/05/11 14:48:33;;;;;;;3.22;2.60;;;;;;;19.60;59.73;99452.81;5003676;28;20176;-67
2021/05/11 14:51:01;;;;;;;3.27;2.70;;;;;;;19.52;59.88;99454.00;4991082;28;20065;-68
2021/05/11 14:53:30;;;;;;;5.97;5.22;;;;;;;19.47;60.76;99449.56;4991206;28;20058;-67
2021/05/11 14:55:58;;;;;;;4.80;4.20;;;;;;;19.47;61.09;99440.28;4993823;28;20407;-67
2021/05/11 14:58:25;;;;;;;4.55;3.50;;;;;;;19.52;61.22;99433.44;5000299;28;20054;-67
2021/05/11 15:00:52;;;;;;;4.18;3.00;;;;;;;19.55;60.80;99429.78;4988382;28;20435;-69
2021/05/11 15:03:19;;;;;;;4.82;3.40;;;;;;;19.62;61.09;99430.63;4999125;28;20510;-69
2021/05/11 15:05:46;;;;;;;4.03;3.30;;;;;;;19.63;61.71;99426.59;4993894;28;20058;-69